Time;durP1;ratioP1;P1;durP2;ratioP2;P2;SDS_P1;SDS_P2;PMS_P1;PMS_P2;Temp;Humidity;BMP_temperature;BMP_pressure;BME280_temperature;BME280_humidity;BME280_pressure;Samples;Min_cycle;Max_cycle;Signal;HPM_P1;HPM_P2
2023/07/27 00:00:18;;;;;;;12.05;7.03;;;;;;;16.68;64.81;100491.69;685148;28;942;-78
2023/07/27 00:00:38;;;;;;;10.40;6.50;;;;;;;16.69;65.08;100482.03;685269;28;1190;-78
2023/07/27 00:00:59;;;;;;;9.90;6.50;;;;;;;16.70;65.08;100489.94;680414;29;1129;-78
2023/07/27 00:01:19;;;;;;;9.77;6.30;;;;;;;16.68;65.31;100486.44;682524;29;1968;-78
2023/07/27 00:01:40;;;;;;;9.35;6.38;;;;;;;16.66;65.44;100485.53;685372;28;1031;-78
2023/07/27 00:02:01;;;;;;;9.52;6.40;;;;;;;16.65;65.55;100481.16;688226;28;1242;-78
2023/07/27 00:02:23;;;;;;;10.40;6.60;;;;;;;16.68;65.61;100486.44;685217;28;1259;-78
2023/07/27 00:02:43;;;;;;;11.75;6.65;;;;;;;16.64;65.80;100484.66;682906;28;1022;-78
2023/07/27 00:03:04;;;;;;;11.63;6.47;;;;;;;16.63;65.95;100477.66;682680;29;1162;-79
2023/07/27 00:03:24;;;;;;;10.35;6.28;;;;;;;16.62;66.05;100486.44;677423;29;1141;-78
2023/07/27 00:03:45;;;;;;;10.20;6.00;;;;;;;16.58;65.89;100482.94;685527;28;1025;-78
2023/07/27 00:04:05;;;;;;;10.95;6.30;;;;;;;16.62;66.16;100486.44;685171;28;1134;-78
2023/07/27 00:04:26;;;;;;;11.70;6.50;;;;;;;16.57;66.39;100482.91;685110;28;1163;-78
2023/07/27 00:04:47;;;;;;;11.23;6.60;;;;;;;16.52;66.20;100475.03;684829;28;1325;-78
2023/07/27 00:05:08;;;;;;;10.35;6.60;;;;;;;16.57;66.16;100483.81;685318;28;1243;-79
2023/07/27 00:05:28;;;;;;;9.70;6.22;;;;;;;16.60;66.35;100488.19;674583;29;1159;-79
2023/07/27 00:05:49;;;;;;;9.50;6.30;;;;;;;16.54;66.51;100483.78;681638;29;1276;-78
2023/07/27 00:06:10;;;;;;;9.80;6.20;;;;;;;16.52;66.66;100479.41;680076;29;995;-78
2023/07/27 00:06:30;;;;;;;9.60;6.32;;;;;;;16.50;66.77;100475.91;682038;29;1349;-78
2023/07/27 00:06:51;;;;;;;10.70;6.20;;;;;;;16.49;66.65;100482.94;685601;28;1397;-78
2023/07/27 00:07:12;;;;;;;10.87;6.47;;;;;;;16.47;66.66;100482.03;682715;28;1014;-78
2023/07/27 00:07:32;;;;;;;12.05;6.95;;;;;;;16.43;66.79;100475.03;685259;28;1323;-78
2023/07/27 00:07:53;;;;;;;11.70;7.00;;;;;;;16.46;67.02;100474.16;682995;29;752;-78
2023/07/27 00:08:14;;;;;;;10.50;6.63;;;;;;;16.47;67.10;100486.47;685113;28;1247;-78
2023/07/27 00:08:34;;;;;;;11.03;5.93;;;;;;;16.43;66.90;100480.31;682784;29;1002;-78
2023/07/27 00:08:56;;;;;;;10.50;5.93;;;;;;;16.41;67.14;100480.31;685566;28;871;-78
2023/07/27 00:09:17;;;;;;;11.30;6.05;;;;;;;16.40;67.22;100472.41;685136;28;1048;-77
2023/07/27 00:09:38;;;;;;;10.20;6.40;;;;;;;16.40;67.27;100483.81;682140;28;1332;-78
2023/07/27 00:09:58;;;;;;;9.63;6.30;;;;;;;16.34;67.20;100461.88;684977;28;1180;-78
2023/07/27 00:10:20;;;;;;;12.13;6.22;;;;;;;16.34;67.30;100468.00;687996;28;985;-78
2023/07/27 00:10:41;;;;;;;13.18;6.10;;;;;;;16.36;67.38;100473.28;685399;28;1095;-78
2023/07/27 00:11:02;;;;;;;12.45;6.05;;;;;;;16.33;67.36;100474.16;690474;28;1079;-78
2023/07/27 00:11:22;;;;;;;11.93;6.20;;;;;;;16.31;67.24;100470.66;690743;28;1071;-78
2023/07/27 00:11:43;;;;;;;10.63;6.60;;;;;;;16.34;67.38;100475.06;688138;28;958;-78
2023/07/27 00:12:04;;;;;;;10.20;6.65;;;;;;;16.28;67.42;100470.66;687591;28;1009;-78
2023/07/27 00:12:25;;;;;;;10.45;6.47;;;;;;;16.19;67.63;100468.88;682481;28;1295;-78
2023/07/27 00:12:46;;;;;;;10.90;6.40;;;;;;;16.15;67.65;100475.91;682920;29;882;-79
2023/07/27 00:13:07;;;;;;;11.02;6.45;;;;;;;16.15;67.71;100473.28;685393;28;966;-79
2023/07/27 00:13:28;;;;;;;11.15;6.47;;;;;;;16.11;67.97;100468.88;685239;28;1129;-78
2023/07/27 00:13:48;;;;;;;11.05;6.40;;;;;;;16.11;67.93;100465.38;690899;28;1144;-78
2023/07/27 00:14:09;;;;;;;11.60;6.50;;;;;;;16.08;67.73;100463.63;688125;28;1249;-78
2023/07/27 00:14:29;;;;;;;9.23;6.22;;;;;;;16.09;67.84;100470.63;685350;28;1307;-78
2023/07/27 00:14:50;;;;;;;9.23;6.43;;;;;;;16.08;67.88;100468.88;682902;28;1237;-77
2023/07/27 00:15:11;;;;;;;8.97;6.60;;;;;;;16.05;68.14;100466.25;690823;28;1062;-78
2023/07/27 00:15:32;;;;;;;8.95;6.65;;;;;;;16.04;67.90;100467.09;685348;28;1273;-78
2023/07/27 00:15:52;;;;;;;9.97;6.40;;;;;;;16.08;68.06;100468.88;685465;28;875;-78
2023/07/27 00:16:14;;;;;;;11.60;6.50;;;;;;;16.02;67.81;100469.75;685299;28;989;-78
2023/07/27 00:16:34;;;;;;;12.82;6.70;;;;;;;16.05;67.71;100471.53;685440;28;1072;-78
2023/07/27 00:16:55;;;;;;;12.60;6.55;;;;;;;16.02;67.97;100463.59;688157;28;1154;-78
2023/07/27 00:17:16;;;;;;;11.07;6.30;;;;;;;16.17;67.78;100476.78;687882;28;1139;-79
2023/07/27 00:17:37;;;;;;;10.10;6.40;;;;;;;16.19;67.66;100476.78;685245;28;1221;-78
2023/07/27 00:17:58;;;;;;;9.40;6.57;;;;;;;16.13;67.59;100472.41;685603;28;800;-78
2023/07/27 00:18:18;;;;;;;9.45;6.63;;;;;;;16.07;67.76;100471.50;685161;28;977;-78
2023/07/27 00:18:39;;;;;;;8.90;6.30;;;;;;;16.11;67.99;100478.53;682498;28;1224;-78
2023/07/27 00:19:00;;;;;;;9.38;6.20;;;;;;;16.06;67.73;100469.75;687991;28;1207;-78
2023/07/27 00:19:20;;;;;;;10.50;6.20;;;;;;;16.01;67.82;100465.38;690790;28;1185;-78
2023/07/27 00:19:41;;;;;;;12.02;6.55;;;;;;;16.04;67.86;100475.00;691114;28;1178;-79
2023/07/27 00:20:02;;;;;;;13.05;6.80;;;;;;;16.03;68.09;100473.25;680202;28;1199;-79
2023/07/27 00:20:23;;;;;;;10.85;6.60;;;;;;;16.02;68.09;100468.88;685262;28;1137;-79
2023/07/27 00:20:43;;;;;;;9.57;6.30;;;;;;;16.03;68.04;100468.00;690687;28;1008;-78
2023/07/27 00:21:04;;;;;;;8.37;6.43;;;;;;;16.00;68.13;100465.38;693362;28;1202;-78
2023/07/27 00:21:25;;;;;;;10.07;6.70;;;;;;;15.97;68.12;100463.59;682477;28;1910;-78
2023/07/27 00:21:45;;;;;;;10.27;6.78;;;;;;;16.01;67.95;100467.13;688199;28;914;-79
2023/07/27 00:22:06;;;;;;;10.63;6.50;;;;;;;16.00;68.19;100466.22;690587;28;977;-78
2023/07/27 00:22:27;;;;;;;9.68;6.30;;;;;;;15.97;68.18;100457.47;687938;28;1147;-78
2023/07/27 00:22:48;;;;;;;9.13;6.10;;;;;;;15.95;68.15;100456.56;688036;28;1179;-78
2023/07/27 00:23:08;;;;;;;9.65;6.07;;;;;;;15.97;68.11;100458.34;693600;28;1189;-78
2023/07/27 00:23:29;;;;;;;9.83;6.20;;;;;;;15.95;68.08;100459.22;693340;28;1110;-78
2023/07/27 00:23:49;;;;;;;9.70;6.30;;;;;;;15.93;68.15;100455.72;693722;28;1187;-78
2023/07/27 00:24:10;;;;;;;9.27;6.70;;;;;;;15.94;68.28;100460.09;685200;28;1226;-78
2023/07/27 00:24:31;;;;;;;8.70;6.50;;;;;;;15.93;68.19;100458.34;687963;28;1051;-78
2023/07/27 00:24:51;;;;;;;11.30;6.82;;;;;;;16.00;68.20;100466.22;682847;29;1291;-78
2023/07/27 00:25:12;;;;;;;11.03;6.70;;;;;;;16.01;68.01;100456.59;685453;28;1136;-78
2023/07/27 00:25:33;;;;;;;10.82;6.70;;;;;;;16.06;67.85;100456.59;687560;28;1402;-78
2023/07/27 00:25:53;;;;;;;9.95;6.40;;;;;;;16.08;67.88;100463.63;690744;28;1328;-78
2023/07/27 00:26:14;;;;;;;10.33;6.33;;;;;;;16.07;67.78;100459.22;690284;28;1112;-78
2023/07/27 00:26:34;;;;;;;11.18;6.30;;;;;;;16.05;67.83;100458.34;682708;28;1200;-78
2023/07/27 00:26:55;;;;;;;10.90;6.37;;;;;;;16.06;67.74;100452.22;682920;29;857;-78
2023/07/27 00:27:16;;;;;;;10.27;6.22;;;;;;;16.08;67.69;100457.47;687227;28;1112;-78
2023/07/27 00:27:36;;;;;;;10.15;6.25;;;;;;;16.07;67.81;100451.34;685348;28;1084;-78
2023/07/27 00:27:57;;;;;;;10.07;6.60;;;;;;;16.06;67.80;100452.22;688251;28;829;-78
2023/07/27 00:28:18;;;;;;;12.32;6.90;;;;;;;16.02;67.76;100445.19;687805;28;1254;-78
2023/07/27 00:28:39;;;;;;;11.20;6.70;;;;;;;16.07;67.84;100455.72;685290;28;1153;-78
2023/07/27 00:29:00;;;;;;;11.05;6.43;;;;;;;16.03;67.82;100454.81;685417;28;1124;-78
2023/07/27 00:29:20;;;;;;;11.30;6.40;;;;;;;16.06;67.71;100453.97;688056;28;1017;-78
2023/07/27 00:29:41;;;;;;;11.48;6.70;;;;;;;16.10;67.75;100461.00;688644;28;1224;-78
2023/07/27 00:30:02;;;;;;;12.00;6.60;;;;;;;16.09;67.79;100460.09;683227;28;1273;-77
2023/07/27 00:30:22;;;;;;;10.80;6.50;;;;;;;16.02;67.90;100453.06;685232;28;1255;-78
2023/07/27 00:30:43;;;;;;;10.43;6.40;;;;;;;16.02;67.68;100453.97;688011;28;1082;-78
2023/07/27 00:31:04;;;;;;;10.27;6.50;;;;;;;16.04;67.80;100453.94;685288;28;1244;-78
2023/07/27 00:31:24;;;;;;;9.30;6.90;;;;;;;16.09;67.75;100460.09;688112;28;1021;-78
2023/07/27 00:31:45;;;;;;;9.45;7.03;;;;;;;16.06;67.58;100452.22;687664;28;1201;-79
2023/07/27 00:32:06;;;;;;;9.98;6.88;;;;;;;16.02;67.79;100446.06;688115;28;987;-78
2023/07/27 00:32:27;;;;;;;9.80;6.65;;;;;;;16.04;67.75;100448.69;682579;28;1223;-78
2023/07/27 00:32:47;;;;;;;9.23;6.47;;;;;;;16.06;67.76;100448.69;685614;28;855;-78
2023/07/27 00:33:09;;;;;;;9.70;6.53;;;;;;;16.08;67.65;100452.19;682662;28;1040;-78
2023/07/27 00:33:30;;;;;;;10.88;6.40;;;;;;;16.04;67.58;100443.41;685243;28;1078;-78
2023/07/27 00:33:50;;;;;;;10.68;6.38;;;;;;;16.05;67.54;100445.19;690949;28;936;-78
2023/07/27 00:34:11;;;;;;;10.90;6.50;;;;;;;16.03;67.71;100446.94;688047;28;1327;-78
2023/07/27 00:34:32;;;;;;;10.52;6.72;;;;;;;16.07;67.86;100451.34;679811;29;1093;-78
2023/07/27 00:34:54;;;;;;;10.32;6.65;;;;;;;16.07;67.45;100448.69;685576;28;740;-78
2023/07/27 00:35:15;;;;;;;9.48;6.75;;;;;;;16.07;67.49;100446.06;685453;28;1388;-78
2023/07/27 00:35:35;;;;;;;10.27;6.50;;;;;;;16.07;67.50;100446.06;687067;28;1373;-78
2023/07/27 00:35:57;;;;;;;10.63;6.80;;;;;;;16.07;67.54;100438.19;682630;28;1152;-78
2023/07/27 00:36:20;;;;;;;10.90;6.63;;;;;;;16.09;67.41;100448.72;687494;28;986;-78
2023/07/27 00:36:41;;;;;;;9.43;6.50;;;;;;;16.05;67.41;100442.56;686736;28;1198;-78
2023/07/27 00:37:01;;;;;;;9.30;6.60;;;;;;;16.09;67.46;100454.84;687553;28;1212;-78
2023/07/27 00:37:23;;;;;;;10.13;6.63;;;;;;;16.02;67.47;100445.19;688036;28;1964;-78
2023/07/27 00:37:44;;;;;;;10.70;6.50;;;;;;;16.02;67.59;100437.28;688236;28;1195;-78
2023/07/27 00:38:04;;;;;;;10.60;6.53;;;;;;;16.03;67.54;100441.66;677679;29;1045;-78
2023/07/27 00:38:26;;;;;;;12.05;6.50;;;;;;;16.05;67.70;100442.56;682750;29;1288;-78
2023/07/27 00:38:47;;;;;;;11.15;6.60;;;;;;;16.05;67.86;100447.84;686118;28;1749;-78
2023/07/27 00:39:07;;;;;;;11.40;6.65;;;;;;;16.04;67.62;100441.69;685526;28;1047;-78
2023/07/27 00:39:28;;;;;;;10.60;6.80;;;;;;;16.05;67.79;100442.56;685145;28;1133;-78
2023/07/27 00:39:48;;;;;;;12.70;7.00;;;;;;;16.07;68.04;100440.81;683463;28;1266;-78
2023/07/27 00:40:10;;;;;;;13.82;7.05;;;;;;;16.06;67.82;100444.31;680174;28;1352;-79
2023/07/27 00:40:30;;;;;;;12.88;7.20;;;;;;;16.07;67.82;100440.81;685244;28;1341;-77
2023/07/27 00:40:51;;;;;;;9.05;6.65;;;;;;;16.10;67.87;100446.06;685752;28;989;-78
2023/07/27 00:41:12;;;;;;;8.68;6.43;;;;;;;16.08;68.07;100441.66;685765;28;1076;-78
2023/07/27 00:41:33;;;;;;;9.60;6.60;;;;;;;16.09;67.96;100443.44;688635;28;1918;-78
2023/07/27 00:41:53;;;;;;;10.80;7.40;;;;;;;16.07;68.12;100430.28;688158;28;1422;-77
2023/07/27 00:42:14;;;;;;;10.77;7.05;;;;;;;16.06;67.94;100431.16;687396;28;970;-78
2023/07/27 00:42:35;;;;;;;10.40;6.77;;;;;;;16.11;67.77;100446.94;687933;28;1089;-78
2023/07/27 00:42:56;;;;;;;10.80;6.38;;;;;;;16.11;67.75;100436.41;682944;29;764;-78
2023/07/27 00:43:16;;;;;;;10.00;6.40;;;;;;;16.12;67.85;100436.41;685081;28;1124;-77
2023/07/27 00:43:37;;;;;;;9.93;6.40;;;;;;;16.12;67.99;100443.44;682698;28;1217;-78
2023/07/27 00:43:58;;;;;;;11.00;6.70;;;;;;;16.11;67.96;100441.69;688194;28;1655;-78
2023/07/27 00:44:18;;;;;;;10.70;6.50;;;;;;;16.12;67.94;100435.53;685623;28;1204;-78
2023/07/27 00:44:39;;;;;;;10.73;6.77;;;;;;;16.11;68.07;100442.53;687893;28;1084;-78
2023/07/27 00:44:59;;;;;;;9.88;6.97;;;;;;;16.07;67.89;100429.38;682710;29;950;-79
2023/07/27 00:45:20;;;;;;;10.55;7.22;;;;;;;16.12;67.95;100438.16;685260;28;964;-78
2023/07/27 00:45:41;;;;;;;12.43;7.07;;;;;;;16.14;67.94;100432.03;684657;28;1183;-78
2023/07/27 00:46:03;;;;;;;12.85;6.90;;;;;;;16.15;68.02;100436.41;682623;29;1058;-77
2023/07/27 00:46:25;;;;;;;14.77;7.07;;;;;;;16.09;67.92;100427.66;687706;28;1258;-78
2023/07/27 00:46:46;;;;;;;13.27;6.93;;;;;;;16.09;67.80;100422.38;688028;28;984;-77
2023/07/27 00:47:06;;;;;;;13.00;7.10;;;;;;;16.06;67.88;100417.09;685231;28;1045;-78
2023/07/27 00:47:27;;;;;;;11.25;7.03;;;;;;;16.12;67.95;100433.75;685014;28;1206;-78
2023/07/27 00:47:48;;;;;;;12.05;7.03;;;;;;;16.11;68.01;100434.66;690652;28;1389;-78
2023/07/27 00:48:09;;;;;;;12.70;6.80;;;;;;;16.07;67.88;100422.38;682583;28;1164;-78
2023/07/27 00:48:30;;;;;;;11.90;6.85;;;;;;;16.12;67.84;100431.13;682848;28;1075;-78
2023/07/27 00:48:52;;;;;;;11.02;6.75;;;;;;;16.06;67.84;100423.25;688216;28;1385;-78
2023/07/27 00:49:14;;;;;;;9.80;6.50;;;;;;;16.13;67.79;100435.53;685840;28;1400;-77
2023/07/27 00:49:35;;;;;;;10.27;6.55;;;;;;;16.07;67.92;100422.38;688044;28;1390;-78
2023/07/27 00:49:56;;;;;;;9.98;6.80;;;;;;;16.06;67.76;100418.00;682825;28;819;-78
2023/07/27 00:50:17;;;;;;;10.40;6.90;;;;;;;16.06;67.47;100423.25;682587;28;1061;-78
2023/07/27 00:50:38;;;;;;;11.02;6.82;;;;;;;16.06;67.80;100428.53;687898;28;1036;-77
2023/07/27 00:50:59;;;;;;;11.63;6.75;;;;;;;16.04;67.73;100425.88;688503;28;1055;-77
2023/07/27 00:51:20;;;;;;;10.43;6.65;;;;;;;16.09;67.81;100427.66;687916;28;1014;-77
2023/07/27 00:51:43;;;;;;;8.97;6.57;;;;;;;16.06;67.76;100419.75;685230;28;1136;-77
2023/07/27 00:52:07;;;;;;;8.32;6.30;;;;;;;16.06;67.75;100418.00;685318;28;1021;-77
2023/07/27 00:52:28;;;;;;;8.88;6.32;;;;;;;16.07;67.74;100427.66;687584;28;1154;-77
2023/07/27 00:52:49;;;;;;;10.43;6.70;;;;;;;16.04;67.96;100414.47;685466;28;901;-77
2023/07/27 00:53:10;;;;;;;10.90;6.88;;;;;;;16.04;67.74;100417.09;680470;28;1040;-77
2023/07/27 00:53:30;;;;;;;11.80;7.00;;;;;;;16.04;67.79;100414.47;685051;28;1082;-77
2023/07/27 00:53:51;;;;;;;11.07;6.73;;;;;;;16.01;67.84;100410.09;685493;28;747;-77
2023/07/27 00:54:14;;;;;;;11.13;6.70;;;;;;;16.02;67.91;100416.22;682430;28;1190;-77
2023/07/27 00:54:36;;;;;;;11.68;6.90;;;;;;;16.01;68.04;100403.97;682551;29;1182;-77
2023/07/27 00:54:58;;;;;;;11.13;6.75;;;;;;;16.03;68.03;100407.47;685379;28;1212;-77
2023/07/27 00:55:19;;;;;;;12.27;6.63;;;;;;;16.03;68.04;100410.09;679623;29;2476;-77
2023/07/27 00:55:41;;;;;;;13.95;6.75;;;;;;;16.00;68.31;100410.09;684543;28;1016;-77
2023/07/27 00:56:02;;;;;;;13.02;6.75;;;;;;;16.04;68.08;100419.72;685510;28;996;-77
2023/07/27 00:56:23;;;;;;;11.38;6.65;;;;;;;15.97;68.08;100396.97;687886;28;1236;-77
2023/07/27 00:56:44;;;;;;;8.80;6.40;;;;;;;16.01;68.14;100407.47;688040;28;1119;-77
2023/07/27 00:57:06;;;;;;;8.77;6.53;;;;;;;15.98;68.00;100409.22;680332;28;1263;-77
2023/07/27 00:57:28;;;;;;;9.93;6.70;;;;;;;15.99;68.13;100416.25;685517;28;1335;-78
2023/07/27 00:57:51;;;;;;;10.30;6.40;;;;;;;15.98;68.04;100403.97;682671;28;1377;-79
2023/07/27 00:58:13;;;;;;;11.95;6.93;;;;;;;16.04;68.22;100415.38;682699;29;1136;-77
2023/07/27 00:58:41;;;;;;;12.82;7.00;;;;;;;16.03;67.85;100410.09;679962;29;978;-77
2023/07/27 00:59:04;;;;;;;11.15;7.30;;;;;;;15.99;67.98;100409.22;688122;28;1286;-78
2023/07/27 00:59:28;;;;;;;9.55;6.88;;;;;;;15.99;68.01;100403.09;690587;28;1082;-77
2023/07/27 00:59:50;;;;;;;9.38;6.70;;;;;;;15.95;68.04;100401.31;690242;28;1262;-79
2023/07/27 01:00:13;;;;;;;10.45;6.72;;;;;;;15.99;68.15;100410.97;690700;28;934;-78
2023/07/27 01:00:34;;;;;;;11.57;7.03;;;;;;;15.95;67.97;100399.56;682956;28;1117;-78
2023/07/27 01:00:55;;;;;;;10.93;6.87;;;;;;;15.98;67.96;100410.09;685405;28;1462;-77
2023/07/27 01:01:16;;;;;;;10.70;7.35;;;;;;;15.96;67.98;100400.44;685007;28;1020;-77
2023/07/27 01:01:37;;;;;;;11.20;7.22;;;;;;;15.94;67.91;100403.09;685222;28;1966;-77
2023/07/27 01:01:59;;;;;;;11.07;7.38;;;;;;;15.94;67.93;100403.09;685207;28;1258;-77
2023/07/27 01:02:19;;;;;;;10.40;7.20;;;;;;;15.94;67.94;100405.72;685057;28;1096;-77
2023/07/27 01:02:40;;;;;;;9.50;7.00;;;;;;;15.97;67.71;100407.47;687689;28;1332;-77
2023/07/27 01:03:03;;;;;;;8.88;6.65;;;;;;;15.98;68.07;100410.09;687711;28;1275;-77
2023/07/27 01:03:23;;;;;;;9.95;6.72;;;;;;;15.95;68.17;100404.84;687703;28;1282;-77
2023/07/27 01:03:44;;;;;;;11.27;7.10;;;;;;;15.94;68.03;100403.09;687986;28;1069;-77
2023/07/27 01:04:05;;;;;;;12.75;7.30;;;;;;;15.99;67.97;100410.97;690519;28;1190;-77
2023/07/27 01:04:26;;;;;;;14.35;7.35;;;;;;;15.99;67.97;100403.94;687819;28;1103;-77
2023/07/27 01:04:47;;;;;;;14.00;7.10;;;;;;;15.96;68.19;100400.44;682689;29;917;-77
2023/07/27 01:05:10;;;;;;;12.25;7.03;;;;;;;15.97;68.04;100402.22;685244;28;947;-77
2023/07/27 01:05:31;;;;;;;12.80;6.85;;;;;;;15.97;68.02;100400.44;686809;28;1370;-77
2023/07/27 01:05:51;;;;;;;14.20;6.88;;;;;;;15.99;68.20;100403.94;685183;28;1092;-77
2023/07/27 01:06:13;;;;;;;13.60;7.03;;;;;;;16.02;68.15;100400.44;682376;28;1168;-77
2023/07/27 01:06:33;;;;;;;13.70;7.40;;;;;;;16.04;68.15;100403.94;685205;28;1136;-77
2023/07/27 01:06:55;;;;;;;12.05;7.68;;;;;;;15.98;68.59;100394.31;690773;28;1456;-77
2023/07/27 01:07:16;;;;;;;11.05;7.18;;;;;;;15.97;68.16;100391.69;690470;28;1048;-78
2023/07/27 01:07:36;;;;;;;9.63;6.85;;;;;;;16.00;68.48;100399.56;687928;28;1227;-78
2023/07/27 01:07:57;;;;;;;8.73;6.60;;;;;;;16.02;68.39;100405.72;688097;28;1164;-77
2023/07/27 01:08:17;;;;;;;8.73;6.75;;;;;;;16.02;68.19;100400.44;686066;28;1322;-78
2023/07/27 01:08:38;;;;;;;9.45;6.55;;;;;;;15.98;68.24;100394.31;687812;28;1097;-78
2023/07/27 01:09:00;;;;;;;10.50;7.17;;;;;;;15.96;68.27;100395.16;685456;28;1142;-77
2023/07/27 01:09:21;;;;;;;11.13;7.60;;;;;;;16.00;68.20;100405.69;679841;29;1049;-77
2023/07/27 01:09:41;;;;;;;10.48;7.60;;;;;;;15.95;68.26;100388.16;684063;28;1735;-77
2023/07/27 01:10:05;;;;;;;10.10;6.95;;;;;;;15.97;68.03;100392.56;681972;29;1137;-77
2023/07/27 01:10:51;;;;;;;9.70;6.65;;;;;;;15.98;68.24;100398.72;684793;28;1308;-78
2023/07/27 01:11:26;;;;;;;9.70;6.72;;;;;;;15.94;68.23;100392.56;685066;28;1233;-77
2023/07/27 01:12:02;;;;;;;9.40;6.82;;;;;;;15.96;68.07;100400.44;685836;28;1203;-77
2023/07/27 01:12:34;;;;;;;10.50;6.82;;;;;;;15.94;68.20;100391.66;685097;28;958;-78
2023/07/27 01:13:02;;;;;;;14.25;7.40;;;;;;;15.91;68.34;100392.53;685485;28;1290;-77
2023/07/27 01:13:31;;;;;;;13.43;6.90;;;;;;;15.94;68.24;100394.31;685144;28;1378;-78
2023/07/27 01:14:00;;;;;;;9.05;6.47;;;;;;;15.89;68.29;100389.03;688034;28;1004;-77
2023/07/27 01:14:46;;;;;;;10.20;6.75;;;;;;;15.92;68.21;100388.19;687705;28;1044;-77
2023/07/27 01:15:12;;;;;;;11.00;6.60;;;;;;;15.92;68.05;100398.69;680305;29;1029;-78
2023/07/27 01:15:38;;;;;;;12.63;7.13;;;;;;;15.86;68.24;100382.03;687286;28;1014;-77
2023/07/27 01:16:08;;;;;;;13.07;7.50;;;;;;;15.85;68.23;100382.91;688222;28;799;-76
2023/07/27 01:16:44;;;;;;;11.65;7.40;;;;;;;15.85;68.23;100384.69;689793;28;1219;-78
2023/07/27 01:17:20;;;;;;;10.88;7.10;;;;;;;15.88;68.46;100388.16;687803;28;1058;-77
2023/07/27 01:18:00;;;;;;;9.85;7.03;;;;;;;15.89;68.45;100395.19;674586;29;1979;-77
2023/07/27 01:18:40;;;;;;;12.57;6.72;;;;;;;15.90;68.54;100390.78;682383;29;980;-77
2023/07/27 01:19:18;;;;;;;13.20;6.30;;;;;;;15.86;68.49;100384.66;682170;29;1599;-76
2023/07/27 01:20:09;;;;;;;12.15;6.30;;;;;;;15.86;68.51;100384.66;684730;28;1117;-77
2023/07/27 01:20:42;;;;;;;11.90;6.60;;;;;;;15.83;68.42;100379.41;682593;28;1155;-77
2023/07/27 01:21:34;;;;;;;11.93;6.90;;;;;;;15.85;68.43;100380.28;685220;28;946;-77
2023/07/27 01:22:21;;;;;;;9.57;6.28;;;;;;;15.89;68.29;100381.16;685052;28;1535;-78
2023/07/27 01:23:20;;;;;;;10.82;7.05;;;;;;;15.89;68.37;100382.03;682455;28;1270;-78
2023/07/27 01:24:10;;;;;;;12.43;6.93;;;;;;;15.86;68.45;100379.41;685493;28;1167;-78
2023/07/27 01:24:50;;;;;;;10.07;7.20;;;;;;;15.91;68.50;100382.03;686139;28;1188;-77
2023/07/27 01:25:11;;;;;;;9.73;7.20;;;;;;;15.92;68.52;100390.81;685047;28;970;-78
2023/07/27 01:26:03;;;;;;;11.10;7.20;;;;;;;15.94;68.75;100382.03;685999;28;1170;-78
2023/07/27 01:26:42;;;;;;;11.13;6.90;;;;;;;15.95;68.77;100380.28;689212;28;988;-77
2023/07/27 01:27:12;;;;;;;9.00;6.70;;;;;;;15.95;68.81;100383.78;685489;28;1994;-78
2023/07/27 01:27:39;;;;;;;8.55;6.35;;;;;;;15.96;68.76;100387.28;686031;28;1516;-78
2023/07/27 01:28:44;;;;;;;9.15;6.50;;;;;;;15.97;68.84;100378.53;690577;28;889;-77
2023/07/27 01:29:38;;;;;;;10.23;6.72;;;;;;;15.95;68.73;100377.63;687106;28;1336;-78
2023/07/27 01:30:23;;;;;;;11.60;6.40;;;;;;;15.98;68.63;100380.28;685038;28;1327;-77
2023/07/27 01:31:12;;;;;;;10.10;6.95;;;;;;;15.95;68.52;100372.38;684994;28;1236;-77
2023/07/27 01:31:41;;;;;;;11.52;6.78;;;;;;;15.94;68.52;100370.63;685202;28;1011;-77
2023/07/27 01:32:06;;;;;;;11.45;7.05;;;;;;;15.96;68.48;100363.59;687859;28;1507;-78
2023/07/27 01:32:33;;;;;;;9.77;7.22;;;;;;;15.93;68.64;100368.88;682201;28;997;-77
2023/07/27 01:33:03;;;;;;;10.25;7.22;;;;;;;15.98;68.66;100375.03;680101;29;819;-78
2023/07/27 01:33:35;;;;;;;11.00;7.20;;;;;;;15.98;68.20;100370.63;679939;29;1086;-78
2023/07/27 01:34:05;;;;;;;11.18;7.03;;;;;;;15.93;68.77;100353.97;680040;29;869;-78
2023/07/27 01:34:32;;;;;;;13.23;7.05;;;;;;;15.96;68.68;100358.34;690099;28;1298;-78
2023/07/27 01:34:57;;;;;;;11.80;6.70;;;;;;;15.97;68.61;100360.13;690667;28;834;-77
2023/07/27 01:35:21;;;;;;;9.70;6.50;;;;;;;16.01;68.45;100361.84;685150;28;1110;-78
2023/07/27 01:35:55;;;;;;;10.63;7.03;;;;;;;15.97;68.59;100349.59;679262;29;1281;-77
2023/07/27 01:36:24;;;;;;;10.73;7.30;;;;;;;15.96;68.58;100355.69;682366;28;1012;-77
2023/07/27 01:36:49;;;;;;;9.55;7.05;;;;;;;15.98;68.58;100356.59;687853;28;1063;-78
2023/07/27 01:37:15;;;;;;;11.35;7.10;;;;;;;15.94;68.64;100349.56;685091;28;914;-78
2023/07/27 01:37:39;;;;;;;12.48;7.20;;;;;;;15.96;68.47;100353.06;687961;28;2305;-78
2023/07/27 01:38:01;;;;;;;10.68;7.10;;;;;;;16.00;68.84;100360.09;687815;28;1433;-78
2023/07/27 01:38:24;;;;;;;9.30;6.60;;;;;;;15.98;68.43;100351.34;682251;28;1072;-77
2023/07/27 01:38:48;;;;;;;10.95;6.70;;;;;;;15.98;68.45;100352.19;685124;28;1308;-78
2023/07/27 01:39:11;;;;;;;12.20;7.00;;;;;;;16.03;68.46;100354.81;687712;28;996;-77
2023/07/27 01:39:35;;;;;;;12.05;6.95;;;;;;;15.99;68.48;100350.47;687698;28;1198;-78
2023/07/27 01:39:58;;;;;;;10.52;7.07;;;;;;;16.03;68.50;100352.19;685213;28;1296;-78
2023/07/27 01:40:20;;;;;;;8.70;6.60;;;;;;;16.03;68.44;100354.81;679630;29;949;-77
2023/07/27 01:40:42;;;;;;;8.32;6.38;;;;;;;16.05;68.41;100363.63;687879;28;1222;-77
2023/07/27 01:41:06;;;;;;;8.50;6.40;;;;;;;16.02;68.32;100351.34;690367;28;1152;-78
2023/07/27 01:41:28;;;;;;;10.05;6.60;;;;;;;16.00;68.26;100346.94;687602;28;1920;-78
2023/07/27 01:41:51;;;;;;;11.18;7.07;;;;;;;16.06;68.42;100360.09;688096;28;794;-78
2023/07/27 01:42:13;;;;;;;10.38;6.88;;;;;;;16.03;68.35;100354.81;687747;28;940;-78
2023/07/27 01:42:34;;;;;;;11.13;7.05;;;;;;;16.02;68.22;100342.53;687515;28;1284;-77
2023/07/27 01:42:56;;;;;;;9.80;6.65;;;;;;;16.04;68.32;100346.03;690738;28;809;-77
2023/07/27 01:43:17;;;;;;;11.52;6.53;;;;;;;16.03;68.25;100344.28;683062;28;1431;-77
2023/07/27 01:43:41;;;;;;;11.27;6.50;;;;;;;16.05;68.22;100353.09;682621;29;984;-78
2023/07/27 01:44:02;;;;;;;11.07;6.40;;;;;;;16.01;68.28;100339.06;682558;28;894;-78
2023/07/27 01:44:24;;;;;;;9.93;6.40;;;;;;;16.06;67.99;100354.84;687733;28;958;-77
2023/07/27 01:44:46;;;;;;;9.50;6.70;;;;;;;16.04;68.32;100348.66;687026;28;1110;-78
2023/07/27 01:45:09;;;;;;;9.82;6.78;;;;;;;16.05;68.13;100350.47;682297;29;1287;-78
2023/07/27 01:45:29;;;;;;;8.98;6.32;;;;;;;16.07;68.02;100345.16;682166;28;1144;-77
2023/07/27 01:46:05;;;;;;;9.80;6.38;;;;;;;16.11;68.08;100355.69;682124;29;740;-77
2023/07/27 01:46:28;;;;;;;10.13;6.70;;;;;;;16.07;67.97;100356.59;685013;28;1015;-77
2023/07/27 01:46:51;;;;;;;11.07;6.85;;;;;;;15.94;68.24;100339.03;685669;28;1349;-77
2023/07/27 01:47:13;;;;;;;12.43;6.60;;;;;;;15.92;68.23;100346.06;682372;29;978;-78
2023/07/27 01:47:35;;;;;;;13.65;6.30;;;;;;;15.89;68.35;100342.56;681907;29;1311;-78
2023/07/27 01:47:57;;;;;;;11.57;6.28;;;;;;;15.89;68.36;100347.84;682706;29;783;-77
2023/07/27 01:48:20;;;;;;;10.10;6.35;;;;;;;15.89;68.37;100350.47;682164;29;1042;-77
2023/07/27 01:48:42;;;;;;;10.68;6.68;;;;;;;15.87;68.47;100341.69;685217;28;1112;-79
2023/07/27 01:49:04;;;;;;;11.27;6.65;;;;;;;15.97;68.20;100345.19;685076;28;1026;-78
2023/07/27 01:49:26;;;;;;;9.40;6.60;;;;;;;16.07;68.02;100351.31;687633;28;1383;-78
2023/07/27 01:49:49;;;;;;;8.45;6.55;;;;;;;16.05;67.92;100353.09;687740;28;961;-78
2023/07/27 01:50:11;;;;;;;8.23;6.50;;;;;;;16.09;67.81;100346.91;679814;28;1249;-78
2023/07/27 01:50:33;;;;;;;8.38;6.38;;;;;;;16.13;67.58;100351.31;677117;29;1009;-78
2023/07/27 01:50:56;;;;;;;8.35;6.13;;;;;;;16.14;67.65;100355.69;677420;29;836;-78
2023/07/27 01:51:19;;;;;;;8.35;6.10;;;;;;;16.09;67.73;100344.28;677086;29;989;-78
2023/07/27 01:51:42;;;;;;;9.50;6.10;;;;;;;16.11;67.68;100352.19;685159;28;1273;-79
2023/07/27 01:52:04;;;;;;;10.02;6.45;;;;;;;16.15;67.77;100348.66;684668;28;1095;-78
2023/07/27 01:52:27;;;;;;;10.80;6.68;;;;;;;16.15;67.75;100348.66;687673;28;1387;-78